Time;durP1;ratioP1;P1;durP2;ratioP2;P2;SDS_P1;SDS_P2;PMS_P1;PMS_P2;Temp;Humidity;BMP_temperature;BMP_pressure;BME280_temperature;BME280_humidity;BME280_pressure;Samples;Min_cycle;Max_cycle;Signal;HPM_P1;HPM_P2
2021/10/08 00:01:05;;;;;;;17.10;13.63;;;;;;;;;;5020078;28;20468;-60
2021/10/08 00:03:30;;;;;;;9.93;8.20;;;;;;;;;;5019231;28;20032;-61
2021/10/08 00:05:56;;;;;;;9.57;7.65;;;;;;;;;;5020050;28;20032;-61
2021/10/08 00:08:21;;;;;;;17.13;12.52;;;;;;;;;;5022057;28;20025;-60
2021/10/08 00:10:46;;;;;;;9.75;6.68;;;;;;;;;;5019640;28;20029;-60
2021/10/08 00:13:12;;;;;;;17.92;12.00;;;;;;;;;;5018738;28;20049;-60
2021/10/08 00:15:37;;;;;;;8.95;6.30;;;;;;;;;;5020074;28;20028;-60
2021/10/08 00:18:03;;;;;;;9.45;7.30;;;;;;;;;;5022210;28;20029;-62
2021/10/08 00:20:28;;;;;;;7.18;6.00;;;;;;;;;;5021691;28;20030;-60
2021/10/08 00:22:53;;;;;;;7.90;5.55;;;;;;;;;;5019540;28;20030;-60
2021/10/08 00:25:19;;;;;;;9.25;6.50;;;;;;;;;;5018710;28;20467;-60
2021/10/08 00:27:44;;;;;;;8.98;6.30;;;;;;;;;;5020308;28;20146;-60
2021/10/08 00:30:10;;;;;;;12.40;7.05;;;;;;;;;;5020225;28;20037;-60
2021/10/08 00:32:35;;;;;;;14.27;7.60;;;;;;;;;;5019801;28;20026;-60
2021/10/08 00:35:01;;;;;;;11.52;6.95;;;;;;;;;;5021136;28;20030;-60
2021/10/08 00:37:26;;;;;;;14.27;8.90;;;;;;;;;;5019832;28;20089;-60
2021/10/08 00:39:52;;;;;;;12.90;8.07;;;;;;;;;;5021235;28;20025;-60
2021/10/08 00:42:22;;;;;;;13.25;8.02;;;;;;;;;;5019006;28;20124;-60
2021/10/08 00:44:47;;;;;;;33.80;10.38;;;;;;;;;;5019826;28;20025;-60
2021/10/08 00:47:14;;;;;;;11.00;7.45;;;;;;;;;;5019474;28;20056;-61
2021/10/08 00:49:40;;;;;;;15.55;8.32;;;;;;;;;;5019118;28;20087;-60
2021/10/08 00:52:05;;;;;;;14.23;7.63;;;;;;;;;;5020610;28;20038;-60
2021/10/08 00:54:31;;;;;;;15.57;7.97;;;;;;;;;;5019554;28;20036;-61
2021/10/08 00:56:58;;;;;;;19.52;8.50;;;;;;;;;;5020168;28;20033;-60
2021/10/08 00:59:29;;;;;;;12.07;7.25;;;;;;;;;;5019091;28;20040;-60
2021/10/08 01:01:55;;;;;;;20.05;8.32;;;;;;;;;;5019270;28;20028;-60
2021/10/08 01:04:23;;;;;;;15.73;8.93;;;;;;;;;;5018612;28;20042;-60
2021/10/08 01:06:48;;;;;;;;;;;;;;;;;;5019466;28;20475;-60
2021/10/08 01:09:13;;;;;;;18.80;8.35;;;;;;;;;;5021102;28;19909;-61
2021/10/08 01:11:40;;;;;;;16.15;9.13;;;;;;;;;;5018828;28;20025;-60
2021/10/08 01:14:05;;;;;;;16.35;8.50;;;;;;;;;;5018285;28;20100;-60
2021/10/08 01:16:31;;;;;;;22.73;8.23;;;;;;;;;;5017397;28;20621;-60
2021/10/08 01:18:56;;;;;;;15.15;8.35;;;;;;;;;;5017012;28;20029;-60
2021/10/08 01:21:21;;;;;;;13.30;8.50;;;;;;;;;;5019524;28;20057;-60
2021/10/08 01:23:47;;;;;;;15.65;8.43;;;;;;;;;;5018557;28;20022;-60
2021/10/08 01:26:13;;;;;;;18.00;9.07;;;;;;;;;;5018618;28;20386;-60
2021/10/08 01:28:39;;;;;;;27.27;8.83;;;;;;;;;;5017735;28;20554;-60
2021/10/08 01:31:06;;;;;;;17.45;9.35;;;;;;;;;;5016969;28;20034;-60
2021/10/08 01:33:32;;;;;;;18.67;9.05;;;;;;;;;;5019098;28;20022;-61
2021/10/08 01:35:58;;;;;;;18.58;9.00;;;;;;;;;;5019885;28;20036;-60
2021/10/08 01:38:23;;;;;;;26.45;8.80;;;;;;;;;;5020463;28;20030;-60
2021/10/08 01:40:48;;;;;;;31.02;9.68;;;;;;;;;;5017297;28;20635;-60
2021/10/08 01:43:14;;;;;;;16.02;7.93;;;;;;;;;;5017933;28;20206;-61
2021/10/08 01:45:39;;;;;;;33.42;8.57;;;;;;;;;;5016406;28;20025;-61
2021/10/08 01:48:05;;;;;;;16.55;8.52;;;;;;;;;;5020220;28;20702;-60
2021/10/08 01:50:30;;;;;;;16.38;8.38;;;;;;;;;;5019026;28;20036;-60
2021/10/08 01:52:58;;;;;;;28.35;7.93;;;;;;;;;;5018526;28;20105;-60
2021/10/08 01:55:23;;;;;;;;;;;;;;;;;;5018695;28;20030;-60
2021/10/08 01:57:48;;;;;;;14.95;7.65;;;;;;;;;;5018154;28;19924;-60
2021/10/08 02:00:15;;;;;;;12.55;7.72;;;;;;;;;;5018679;28;20132;-60
2021/10/08 02:02:40;;;;;;;13.45;7.15;;;;;;;;;;5023058;28;20025;-60
2021/10/08 02:05:06;;;;;;;22.08;7.80;;;;;;;;;;5018734;28;20021;-60
2021/10/08 02:07:31;;;;;;;15.07;7.72;;;;;;;;;;5018895;28;20078;-60
2021/10/08 02:09:56;;;;;;;13.45;7.80;;;;;;;;;;5020572;28;20021;-60
2021/10/08 02:12:22;;;;;;;12.40;7.93;;;;;;;;;;5026455;28;21102;-60
2021/10/08 02:14:47;;;;;;;11.13;7.38;;;;;;;;;;5029877;28;20471;-61
2021/10/08 02:17:12;;;;;;;16.20;7.05;;;;;;;;;;5031840;28;20025;-61
2021/10/08 02:19:38;;;;;;;11.45;7.50;;;;;;;;;;5030783;28;20045;-61
2021/10/08 02:22:04;;;;;;;29.85;7.90;;;;;;;;;;5031270;28;20026;-60
2021/10/08 02:24:29;;;;;;;13.65;7.32;;;;;;;;;;5028059;28;20104;-60
2021/10/08 02:26:55;;;;;;;24.38;7.68;;;;;;;;;;5031130;28;20128;-62
2021/10/08 02:29:20;;;;;;;15.13;7.30;;;;;;;;;;5030647;28;20091;-60
2021/10/08 02:31:46;;;;;;;10.63;7.03;;;;;;;;;;5029735;28;20056;-60
2021/10/08 02:34:12;;;;;;;26.35;7.55;;;;;;;;;;5030639;28;20071;-60
2021/10/08 02:36:37;;;;;;;43.78;8.38;;;;;;;;;;5031273;28;20025;-60
2021/10/08 02:39:03;;;;;;;36.22;8.38;;;;;;;;;;5035148;28;20039;-61
2021/10/08 02:41:28;;;;;;;93.43;9.52;;;;;;;;;;5032044;28;20029;-60
2021/10/08 02:43:53;;;;;;;29.30;8.45;;;;;;;;;;5029564;28;20021;-60
2021/10/08 02:46:19;;;;;;;44.25;9.60;;;;;;;;;;5030402;28;20724;-60
2021/10/08 02:48:44;;;;;;;51.95;9.27;;;;;;;;;;5030939;28;20434;-60
2021/10/08 02:51:10;;;;;;;33.88;9.10;;;;;;;;;;5026454;28;20464;-62
2021/10/08 02:53:35;;;;;;;51.53;10.75;;;;;;;;;;5029212;28;20483;-60
2021/10/08 02:56:01;;;;;;;59.60;11.05;;;;;;;;;;5031497;28;20029;-60
2021/10/08 02:58:26;;;;;;;99.68;11.18;;;;;;;;;;5031000;28;20117;-59
2021/10/08 03:00:52;;;;;;;51.33;10.50;;;;;;;;;;5031451;28;20033;-60
2021/10/08 03:03:17;;;;;;;33.90;10.23;;;;;;;;;;5029544;28;20467;-60
2021/10/08 03:05:43;;;;;;;27.08;9.57;;;;;;;;;;5030205;28;20036;-60
2021/10/08 03:08:08;;;;;;;43.50;10.05;;;;;;;;;;5034709;28;20036;-60
2021/10/08 03:10:34;;;;;;;29.65;9.38;;;;;;;;;;5032820;28;20037;-60
2021/10/08 03:13:00;;;;;;;18.02;9.00;;;;;;;;;;5030545;28;20529;-60
2021/10/08 03:15:26;;;;;;;112.55;11.68;;;;;;;;;;5030638;28;20047;-60
2021/10/08 03:17:51;;;;;;;47.13;9.82;;;;;;;;;;5030236;28;20025;-59
2021/10/08 03:20:17;;;;;;;44.15;10.00;;;;;;;;;;5029505;28;20581;-60
2021/10/08 03:22:42;;;;;;;26.90;8.93;;;;;;;;;;5027720;28;20025;-60
2021/10/08 03:25:08;;;;;;;25.15;9.20;;;;;;;;;;5028658;28;20032;-61
2021/10/08 03:27:35;;;;;;;55.33;10.13;;;;;;;;;;5024825;28;20029;-60
2021/10/08 03:30:01;;;;;;;48.88;10.88;;;;;;;;;;5029371;28;20083;-60
2021/10/08 03:32:26;;;;;;;63.10;10.27;;;;;;;;;;5029631;28;20029;-60
2021/10/08 03:34:52;;;;;;;116.70;12.40;;;;;;;;;;5030087;28;20428;-60
2021/10/08 03:37:21;;;;;;;47.95;10.30;;;;;;;;;;5028490;28;20783;-60
2021/10/08 03:39:48;;;;;;;110.72;11.88;;;;;;;;;;5033893;28;20043;-60
2021/10/08 03:42:17;;;;;;;39.05;9.55;;;;;;;;;;5029454;28;20375;-61
2021/10/08 03:44:46;;;;;;;36.33;9.82;;;;;;;;;;5028550;28;20033;-60
2021/10/08 03:47:18;;;;;;;52.63;10.15;;;;;;;;;;5029836;28;20033;-60
2021/10/08 03:49:43;;;;;;;29.90;9.30;;;;;;;;;;5029120;28;20021;-60
2021/10/08 03:52:09;;;;;;;34.70;9.40;;;;;;;;;;5030194;28;20725;-60
2021/10/08 03:54:35;;;;;;;60.65;10.32;;;;;;;;;;5024506;28;20029;-60
2021/10/08 03:57:00;;;;;;;19.92;9.05;;;;;;;;;;5024171;28;20025;-60
2021/10/08 03:59:26;;;;;;;18.60;8.60;;;;;;;;;;5030772;28;20111;-60
2021/10/08 04:01:51;;;;;;;25.58;8.27;;;;;;;;;;5029887;28;20048;-60
2021/10/08 04:04:16;;;;;;;37.10;9.23;;;;;;;;;;5030388;28;20025;-60
2021/10/08 04:06:42;;;;;;;85.97;11.35;;;;;;;;;;5030692;28;20053;-60
2021/10/08 04:09:08;;;;;;;13.50;7.95;;;;;;;;;;5034144;28;20108;-60
2021/10/08 04:11:33;;;;;;;19.10;7.32;;;;;;;;;;4358053;28;10000864;-60
2021/10/08 04:13:59;;;;;;;15.77;8.05;;;;;;;;;;5046261;28;20076;-60
2021/10/08 04:16:24;;;;;;;31.52;8.15;;;;;;;;;;5028398;28;20025;-60
2021/10/08 04:18:50;;;;;;;18.02;7.60;;;;;;;;;;5029003;28;20411;-60
2021/10/08 04:21:16;;;;;;;39.03;7.38;;;;;;;;;;5028720;28;20060;-60
2021/10/08 04:23:42;;;;;;;38.60;7.97;;;;;;;;;;5029105;28;20487;-60
2021/10/08 04:26:07;;;;;;;42.33;23.48;;;;;;;;;;5028074;28;20018;-60
2021/10/08 04:28:33;;;;;;;31.10;8.10;;;;;;;;;;5030084;28;20041;-60
2021/10/08 04:30:59;;;;;;;12.00;8.05;;;;;;;;;;5027953;28;20037;-60
2021/10/08 04:33:26;;;;;;;18.52;8.65;;;;;;;;;;5029941;28;20030;-60
2021/10/08 04:35:55;;;;;;;19.48;8.32;;;;;;;;;;5029261;28;20485;-60
2021/10/08 04:38:22;;;;;;;37.00;8.35;;;;;;;;;;5033798;28;20025;-61
2021/10/08 04:40:48;;;;;;;10.57;7.28;;;;;;;;;;5034538;28;20047;-60
2021/10/08 04:43:13;;;;;;;23.58;8.25;;;;;;;;;;5033454;28;20112;-61
2021/10/08 04:45:39;;;;;;;29.02;8.70;;;;;;;;;;5033404;28;20119;-60
2021/10/08 04:48:04;;;;;;;34.85;8.32;;;;;;;;;;5031219;28;20032;-60
2021/10/08 04:50:30;;;;;;;39.95;9.07;;;;;;;;;;5033031;28;20031;-60
2021/10/08 04:52:55;;;;;;;29.45;9.15;;;;;;;;;;5032626;28;20494;-60
2021/10/08 04:55:21;;;;;;;15.30;8.15;;;;;;;;;;5033792;28;20508;-60
2021/10/08 04:57:46;;;;;;;21.15;8.25;;;;;;;;;;5032586;28;20036;-60
2021/10/08 05:00:12;;;;;;;22.05;7.43;;;;;;;;;;5029904;28;20033;-61
2021/10/08 05:02:38;;;;;;;19.90;7.43;;;;;;;;;;5029322;28;20404;-60
2021/10/08 05:05:04;;;;;;;25.00;7.60;;;;;;;;;;5034072;28;20108;-60
2021/10/08 05:07:30;;;;;;;30.87;7.70;;;;;;;;;;5033027;28;20035;-60
2021/10/08 05:09:55;;;;;;;29.52;7.57;;;;;;;;;;5035468;28;20033;-60
2021/10/08 05:12:25;;;;;;;27.83;7.13;;;;;;;;;;5032336;28;20033;-59
2021/10/08 05:14:54;;;;;;;22.98;7.38;;;;;;;;;;5032713;28;20029;-60
2021/10/08 05:17:19;;;;;;;31.10;7.70;;;;;;;;;;5032523;28;20056;-59
2021/10/08 05:19:45;;;;;;;57.92;8.52;;;;;;;;;;5032109;28;20091;-60
2021/10/08 05:22:11;;;;;;;48.70;8.80;;;;;;;;;;5032324;28;20546;-60
2021/10/08 05:24:37;;;;;;;29.17;7.80;;;;;;;;;;5031866;28;20029;-59
2021/10/08 05:27:02;;;;;;;36.80;8.85;;;;;;;;;;5030776;28;20380;-59
2021/10/08 05:29:28;;;;;;;32.72;9.57;;;;;;;;;;5030504;28;20025;-59
2021/10/08 05:31:53;;;;;;;31.92;9.43;;;;;;;;;;5031477;28;20038;-60
2021/10/08 05:34:19;;;;;;;49.85;9.65;;;;;;;;;;5031190;28;20091;-59
2021/10/08 05:36:48;;;;;;;69.82;10.15;;;;;;;;;;5031989;28;20485;-59
2021/10/08 05:39:14;;;;;;;42.22;10.57;;;;;;;;;;5038709;28;20631;-60
2021/10/08 05:41:48;;;;;;;53.22;10.52;;;;;;;;;;5032755;28;20052;-59
2021/10/08 05:44:14;;;;;;;37.83;10.07;;;;;;;;;;5025900;28;20029;-61
2021/10/08 05:46:39;;;;;;;30.08;9.82;;;;;;;;;;5032528;28;20423;-61
2021/10/08 05:49:04;;;;;;;44.45;10.63;;;;;;;;;;5026872;28;20120;-61
2021/10/08 05:51:30;;;;;;;48.22;11.60;;;;;;;;;;5031715;28;20224;-61
2021/10/08 05:53:55;;;;;;;24.58;11.00;;;;;;;;;;5028300;28;20036;-59
2021/10/08 05:56:21;;;;;;;52.08;11.25;;;;;;;;;;5028844;28;20056;-60
2021/10/08 05:58:46;;;;;;;32.10;9.95;;;;;;;;;;5030479;28;20029;-61
2021/10/08 06:01:18;;;;;;;53.28;10.48;;;;;;;;;;5032196;28;20056;-60
2021/10/08 06:03:43;;;;;;;23.40;9.02;;;;;;;;;;5031404;28;20048;-60
2021/10/08 06:06:20;;;;;;;36.42;8.63;;;;;;;;;;5032285;28;20486;-60
2021/10/08 06:08:46;;;;;;;23.92;8.68;;;;;;;;;;5037071;28;20021;-61
2021/10/08 06:11:11;;;;;;;17.83;7.75;;;;;;;;;;5031065;28;20079;-59
2021/10/08 06:13:37;;;;;;;22.33;7.93;;;;;;;;;;5027754;28;20443;-60
2021/10/08 06:16:03;;;;;;;16.77;7.57;;;;;;;;;;5031501;28;20029;-59
2021/10/08 06:18:28;;;;;;;22.65;7.68;;;;;;;;;;5032323;28;20714;-60
2021/10/08 06:20:53;;;;;;;16.75;7.32;;;;;;;;;;5030988;28;20041;-62
2021/10/08 06:23:21;;;;;;;13.20;7.20;;;;;;;;;;5031250;28;20021;-60
2021/10/08 06:25:49;;;;;;;16.20;7.72;;;;;;;;;;5031337;28;20671;-60
2021/10/08 06:28:21;;;;;;;17.45;6.90;;;;;;;;;;5030142;28;20059;-60
2021/10/08 06:30:52;;;;;;;42.78;7.82;;;;;;;;;;5027973;28;20155;-60
2021/10/08 06:33:21;;;;;;;59.25;8.43;;;;;;;;;;5030258;28;20339;-59
2021/10/08 06:35:52;;;;;;;20.73;7.63;;;;;;;;;;5030239;28;20060;-60
2021/10/08 06:38:18;;;;;;;39.47;8.07;;;;;;;;;;5029244;28;20025;-58
2021/10/08 06:40:53;;;;;;;22.38;7.50;;;;;;;;;;5030881;28;20419;-63
2021/10/08 06:43:22;;;;;;;16.52;7.40;;;;;;;;;;5032472;28;20483;-59
2021/10/08 06:45:53;;;;;;;19.58;7.40;;;;;;;;;;5030445;28;20056;-60
2021/10/08 06:48:22;;;;;;;29.50;7.28;;;;;;;;;;5031507;28;20087;-59
2021/10/08 06:50:54;;;;;;;17.52;6.75;;;;;;;;;;5031376;28;20029;-61
2021/10/08 06:53:19;;;;;;;82.18;9.45;;;;;;;;;;5029429;28;20092;-59
2021/10/08 06:55:53;;;;;;;22.88;7.63;;;;;;;;;;5026479;28;20052;-60
2021/10/08 06:58:19;;;;;;;27.02;7.47;;;;;;;;;;5029069;28;20099;-59
2021/10/08 07:01:34;;;;;;;26.45;7.53;;;;;;;;;;5032383;28;20171;-60
2021/10/08 07:04:00;;;;;;;24.63;7.32;;;;;;;;;;5034523;28;20029;-60
2021/10/08 07:06:25;;;;;;;46.60;8.00;;;;;;;;;;5036626;28;20419;-60
2021/10/08 07:08:54;;;;;;;14.02;6.85;;;;;;;;;;5032565;28;20056;-60
2021/10/08 07:11:25;;;;;;;28.33;7.32;;;;;;;;;;5028248;28;20018;-59
2021/10/08 07:13:54;;;;;;;43.97;7.88;;;;;;;;;;5030113;28;20033;-59
2021/10/08 07:16:26;;;;;;;62.10;9.57;;;;;;;;;;5029267;28;20083;-59
2021/10/08 07:18:56;;;;;;;17.75;7.72;;;;;;;;;;5025593;28;20022;-60
2021/10/08 07:21:24;;;;;;;21.92;7.93;;;;;;;;;;5030892;28;20033;-59
2021/10/08 07:23:56;;;;;;;19.38;7.45;;;;;;;;;;5021812;28;20038;-60
2021/10/08 07:26:24;;;;;;;16.52;7.65;;;;;;;;;;5019708;28;20613;-59
2021/10/08 07:28:50;;;;;;;95.97;9.75;;;;;;;;;;5028664;28;20029;-59
2021/10/08 07:31:27;;;;;;;36.35;8.25;;;;;;;;;;5028607;28;21635;-60
2021/10/08 07:33:53;;;;;;;24.65;7.10;;;;;;;;;;5033306;28;20033;-59
2021/10/08 07:36:27;;;;;;;25.65;8.02;;;;;;;;;;5029586;28;20021;-59
2021/10/08 07:38:56;;;;;;;17.67;8.10;;;;;;;;;;5028658;28;20030;-59
2021/10/08 07:41:27;;;;;;;15.43;7.78;;;;;;;;;;5029909;28;20067;-59
2021/10/08 07:43:56;;;;;;;19.70;7.50;;;;;;;;;;5029614;28;20033;-60
2021/10/08 07:46:28;;;;;;;11.88;7.50;;;;;;;;;;5029781;28;20127;-59
2021/10/08 07:48:53;;;;;;;20.95;7.28;;;;;;;;;;5025002;28;20076;-60
2021/10/08 07:51:18;;;;;;;15.20;7.30;;;;;;;;;;5029893;28;20034;-59
2021/10/08 07:53:44;;;;;;;22.08;7.55;;;;;;;;;;5027908;28;20037;-61
2021/10/08 07:56:09;;;;;;;17.58;7.82;;;;;;;;;;5028907;28;20018;-58
2021/10/08 07:58:35;;;;;;;24.40;7.93;;;;;;;;;;5029114;28;20368;-59
2021/10/08 08:01:01;;;;;;;13.55;7.22;;;;;;;;;;5026755;28;20021;-59
2021/10/08 08:03:27;;;;;;;14.17;6.80;;;;;;;;;;5026619;28;20061;-60
2021/10/08 08:05:59;;;;;;;13.25;7.53;;;;;;;;;;5028836;28;20463;-61
2021/10/08 08:08:30;;;;;;;21.17;7.43;;;;;;;;;;5033713;28;20037;-59
2021/10/08 08:10:59;;;;;;;13.18;7.05;;;;;;;;;;5030749;28;20041;-59
2021/10/08 08:13:31;;;;;;;31.65;7.60;;;;;;;;;;5031135;28;20044;-60
2021/10/08 08:15:59;;;;;;;28.40;7.93;;;;;;;;;;5033475;28;20029;-59
2021/10/08 08:18:25;;;;;;;16.60;7.88;;;;;;;;;;5030929;28;20036;-61
2021/10/08 08:20:50;;;;;;;15.55;7.82;;;;;;;;;;4326472;28;10000712;-61
2021/10/08 08:23:17;;;;;;;15.40;7.68;;;;;;;;;;5020624;28;20053;-59
2021/10/08 08:25:45;;;;;;;18.83;7.32;;;;;;;;;;5022669;28;20160;-59
2021/10/08 08:28:16;;;;;;;13.48;7.78;;;;;;;;;;5020122;28;20042;-59
2021/10/08 08:30:45;;;;;;;12.50;7.57;;;;;;;;;;5020877;28;20132;-59
2021/10/08 08:33:16;;;;;;;11.30;7.95;;;;;;;;;;5024649;28;20030;-59
2021/10/08 08:35:48;;;;;;;10.38;7.43;;;;;;;;;;5019417;28;20025;-60
2021/10/08 08:38:13;;;;;;;11.52;7.13;;;;;;;;;;5021207;28;20540;-60
2021/10/08 08:40:48;;;;;;;11.60;7.20;;;;;;;;;;5020365;28;20026;-60
2021/10/08 08:43:13;;;;;;;10.07;6.53;;;;;;;;;;5018968;28;20033;-60
2021/10/08 08:45:48;;;;;;;9.80;7.00;;;;;;;;;;5019857;28;20037;-60
2021/10/08 08:48:16;;;;;;;10.70;6.95;;;;;;;;;;5022872;28;20032;-60
2021/10/08 08:50:48;;;;;;;10.52;7.10;;;;;;;;;;5021485;28;20025;-59
2021/10/08 08:53:21;;;;;;;9.35;7.28;;;;;;;;;;5017843;28;20029;-60
2021/10/08 08:55:51;;;;;;;12.98;8.18;;;;;;;;;;5017817;28;20036;-59
2021/10/08 08:58:18;;;;;;;10.10;7.45;;;;;;;;;;5019187;28;20084;-60
2021/10/08 09:00:58;;;;;;;8.90;7.00;;;;;;;;;;5020269;28;20029;-59
2021/10/08 09:03:23;;;;;;;10.95;7.72;;;;;;;;;;5019761;28;20079;-60
2021/10/08 09:05:48;;;;;;;10.98;7.70;;;;;;;;;;5020048;28;20467;-60
2021/10/08 09:08:30;;;;;;;9.77;7.72;;;;;;;;;;5023013;28;20032;-59
2021/10/08 09:10:59;;;;;;;11.55;7.93;;;;;;;;;;5019655;28;20040;-59
2021/10/08 09:13:27;;;;;;;11.88;8.30;;;;;;;;;;5019012;28;20079;-59
2021/10/08 09:15:57;;;;;;;11.68;8.20;;;;;;;;;;5019570;28;20016;-59
2021/10/08 09:18:25;;;;;;;11.82;8.68;;;;;;;;;;5019613;28;20386;-60
2021/10/08 09:21:21;;;;;;;12.35;8.52;;;;;;;;;;5018584;28;20041;-60
2021/10/08 09:23:50;;;;;;;12.20;9.02;;;;;;;;;;5019576;28;20043;-60
2021/10/08 09:26:25;;;;;;;11.05;8.48;;;;;;;;;;5017820;28;20021;-60
2021/10/08 09:28:55;;;;;;;11.25;8.38;;;;;;;;;;5017930;28;20018;-60
2021/10/08 09:31:52;;;;;;;12.32;8.93;;;;;;;;;;5018670;28;20063;-60
2021/10/08 09:34:23;;;;;;;11.60;8.23;;;;;;;;;;5019446;28;20040;-60
2021/10/08 09:39:43;;;;;;;11.77;8.85;;;;;;;;;;5011400;28;20033;-59
2021/10/08 09:42:14;;;;;;;12.95;9.07;;;;;;;;;;5016791;28;20025;-61
2021/10/08 09:44:51;;;;;;;12.60;8.90;;;;;;;;;;5017580;28;20030;-60
2021/10/08 09:47:21;;;;;;;;;;;;;;;;;;5017480;28;20034;-59
2021/10/08 09:49:51;;;;;;;12.10;8.40;;;;;;;;;;5021000;28;20476;-60
2021/10/08 09:52:30;;;;;;;10.15;7.55;;;;;;;;;;5018096;28;20025;-60
2021/10/08 09:54:58;;;;;;;10.63;8.00;;;;;;;;;;5018563;28;20017;-60
2021/10/08 09:57:24;;;;;;;10.43;7.78;;;;;;;;;;5015631;28;20030;-60
2021/10/08 09:59:51;;;;;;;10.43;6.60;;;;;;;;;;5015838;28;20072;-60
2021/10/08 10:02:17;;;;;;;;;;;;;;;;;;5015475;28;20040;-62
2021/10/08 10:04:52;;;;;;;8.47;6.47;;;;;;;;;;5018570;28;20290;-60
2021/10/08 10:07:24;;;;;;;9.23;6.35;;;;;;;;;;5018716;28;20087;-60
2021/10/08 10:09:56;;;;;;;8.30;7.00;;;;;;;;;;5020626;28;20021;-61
2021/10/08 10:12:24;;;;;;;9.75;7.00;;;;;;;;;;5019525;28;20024;-59
2021/10/08 10:14:51;;;;;;;8.20;6.72;;;;;;;;;;5018791;28;20157;-60
2021/10/08 10:17:17;;;;;;;7.35;6.57;;;;;;;;;;5016176;28;20107;-60
2021/10/08 10:19:46;;;;;;;9.48;7.38;;;;;;;;;;5019365;28;20026;-60
2021/10/08 10:22:33;;;;;;;12.50;7.50;;;;;;;;;;5015716;28;20075;-60
2021/10/08 10:24:58;;;;;;;;;;;;;;;;;;5019714;28;20061;-61
2021/10/08 10:27:23;;;;;;;10.15;7.90;;;;;;;;;;5018259;28;20683;-59
2021/10/08 10:29:49;;;;;;;11.73;8.18;;;;;;;;;;5018590;28;20432;-61
2021/10/08 10:32:15;;;;;;;9.57;8.02;;;;;;;;;;5017688;28;20045;-60
2021/10/08 10:34:41;;;;;;;10.23;8.90;;;;;;;;;;5017895;28;20038;-59
2021/10/08 10:37:07;;;;;;;13.07;8.30;;;;;;;;;;5016662;28;20029;-60
2021/10/08 10:39:33;;;;;;;10.20;8.63;;;;;;;;;;5020623;28;20539;-60
2021/10/08 10:42:02;;;;;;;10.60;9.38;;;;;;;;;;5016716;28;20033;-60
2021/10/08 10:44:39;;;;;;;11.57;9.27;;;;;;;;;;5015876;28;20105;-60
2021/10/08 10:47:29;;;;;;;;;;;;;;;;;;5017349;28;20025;-60
2021/10/08 10:50:40;;;;;;;12.75;9.77;;;;;;;;;;5020279;28;19970;-60
2021/10/08 10:53:05;;;;;;;13.50;9.38;;;;;;;;;;5018496;28;20030;-60
2021/10/08 10:55:34;;;;;;;13.43;10.15;;;;;;;;;;5018489;28;20035;-59
2021/10/08 10:58:07;;;;;;;13.25;10.43;;;;;;;;;;5015667;28;20025;-60
2021/10/08 11:00:47;;;;;;;14.38;10.40;;;;;;;;;;5017911;28;20308;-59
2021/10/08 11:03:18;;;;;;;14.35;10.70;;;;;;;;;;5015349;28;20024;-60
2021/10/08 11:06:08;;;;;;;12.05;9.98;;;;;;;;;;5017817;28;20079;-60
2021/10/08 11:08:33;;;;;;;13.52;9.75;;;;;;;;;;5019515;28;20045;-59
2021/10/08 11:10:58;;;;;;;15.73;10.18;;;;;;;;;;5015637;28;20112;-61
2021/10/08 11:13:30;;;;;;;11.23;9.98;;;;;;;;;;5016410;28;20029;-60
2021/10/08 11:16:09;;;;;;;13.75;10.02;;;;;;;;;;5017184;28;20108;-60
2021/10/08 11:18:43;;;;;;;14.82;10.02;;;;;;;;;;5017672;28;20083;-60
2021/10/08 11:21:12;;;;;;;12.25;9.40;;;;;;;;;;5017380;28;20573;-59
2021/10/08 11:23:39;;;;;;;11.88;9.63;;;;;;;;;;5031525;28;20091;-60
2021/10/08 11:26:09;;;;;;;13.00;9.50;;;;;;;;;;5018008;28;20093;-59
2021/10/08 11:28:41;;;;;;;12.02;9.75;;;;;;;;;;5017513;28;20120;-60
2021/10/08 11:31:09;;;;;;;12.60;9.27;;;;;;;;;;5016460;28;20037;-60
2021/10/08 11:33:41;;;;;;;12.00;9.25;;;;;;;;;;5018145;28;20106;-60
2021/10/08 11:36:17;;;;;;;13.10;9.43;;;;;;;;;;5017151;28;20128;-60
2021/10/08 11:38:43;;;;;;;11.65;9.88;;;;;;;;;;5018123;28;20407;-60
2021/10/08 11:41:16;;;;;;;9.95;8.75;;;;;;;;;;5015424;28;20017;-57
2021/10/08 11:43:42;;;;;;;11.63;8.95;;;;;;;;;;5013565;28;20025;-58
2021/10/08 11:47:02;;;;;;;11.43;8.73;;;;;;;;;;5017671;28;20025;-58
2021/10/08 11:49:14;;;;;;;16.20;9.05;;;;;;;;;;5019608;28;20071;-59
2021/10/08 11:51:40;;;;;;;13.07;9.35;;;;;;;;;;5020963;28;20053;-58
2021/10/08 11:54:05;;;;;;;11.07;9.43;;;;;;;;;;5021006;28;20060;-58
2021/10/08 11:56:33;;;;;;;10.75;9.05;;;;;;;;;;5020444;28;20137;-58
2021/10/08 11:58:58;;;;;;;10.57;8.90;;;;;;;;;;5021788;28;20956;-58
2021/10/08 12:01:27;;;;;;;10.40;8.80;;;;;;;;;;5021649;28;20140;-58
2021/10/08 12:03:53;;;;;;;10.60;8.30;;;;;;;;;;5034443;28;20781;-59
2021/10/08 12:06:28;;;;;;;9.88;8.25;;;;;;;;;;5019504;28;20763;-60
2021/10/08 12:08:55;;;;;;;10.50;8.38;;;;;;;;;;5021104;28;20033;-59
2021/10/08 12:11:21;;;;;;;12.27;7.38;;;;;;;;;;5022236;28;20033;-58
2021/10/08 12:14:04;;;;;;;9.73;7.55;;;;;;;;;;5018688;28;20029;-59
2021/10/08 12:16:46;;;;;;;7.90;6.85;;;;;;;;;;5019040;28;20507;-59
2021/10/08 12:19:13;;;;;;;7.47;6.53;;;;;;;;;;5014188;28;20036;-58
2021/10/08 12:21:44;;;;;;;6.78;5.35;;;;;;;;;;5021320;28;20021;-60
2021/10/08 12:24:12;;;;;;;9.65;5.25;;;;;;;;;;5020641;28;20040;-59
2021/10/08 12:26:40;;;;;;;7.93;5.10;;;;;;;;;;5018462;28;20030;-59
2021/10/08 12:29:11;;;;;;;4.97;4.05;;;;;;;;;;5019736;28;20108;-59
2021/10/08 12:32:08;;;;;;;6.35;3.90;;;;;;;;;;5019821;28;20073;-60
2021/10/08 12:34:47;;;;;;;;;;;;;;;;;;5021165;28;20120;-60
2021/10/08 12:37:20;;;;;;;8.38;4.03;;;;;;;;;;5021446;28;19957;-60
2021/10/08 12:40:09;;;;;;;5.63;3.85;;;;;;;;;;5022000;28;20021;-59
2021/10/08 12:42:57;;;;;;;5.43;4.00;;;;;;;;;;5019755;28;20029;-59
2021/10/08 12:45:24;;;;;;;7.20;4.25;;;;;;;;;;5018941;28;20702;-59
2021/10/08 12:47:50;;;;;;;4.50;4.03;;;;;;;;;;5019761;28;20037;-59
2021/10/08 12:50:18;;;;;;;4.40;3.50;;;;;;;;;;5020608;28;20671;-59
2021/10/08 12:52:49;;;;;;;3.88;3.45;;;;;;;;;;5019350;28;20022;-59
2021/10/08 12:55:20;;;;;;;6.30;3.47;;;;;;;;;;5022743;28;20116;-60
2021/10/08 12:57:57;;;;;;;3.75;3.33;;;;;;;;;;5021666;28;20037;-62
2021/10/08 13:00:35;;;;;;;3.90;3.50;;;;;;;;;;5018925;28;20179;-60
2021/10/08 13:03:01;;;;;;;5.78;4.00;;;;;;;;;;5019517;28;20040;-60
2021/10/08 13:05:26;;;;;;;4.70;4.00;;;;;;;;;;5018473;28;20037;-60
2021/10/08 13:08:12;;;;;;;4.85;4.35;;;;;;;;;;5015906;28;20033;-60
2021/10/08 13:11:00;;;;;;;6.70;5.15;;;;;;;;;;5019084;28;20036;-58
2021/10/08 13:13:31;;;;;;;5.18;4.30;;;;;;;;;;5019032;28;20033;-59
2021/10/08 13:15:57;;;;;;;6.60;4.45;;;;;;;;;;5018308;28;20030;-59
2021/10/08 13:18:23;;;;;;;7.30;5.00;;;;;;;;;;5019295;28;20033;-59
2021/10/08 13:20:51;;;;;;;5.68;4.75;;;;;;;;;;5019867;28;20106;-59
2021/10/08 13:23:17;;;;;;;5.20;4.70;;;;;;;;;;5019698;28;21205;-59
2021/10/08 13:25:46;;;;;;;6.80;5.40;;;;;;;;;;5020816;28;20171;-59
2021/10/08 13:28:13;;;;;;;8.32;5.30;;;;;;;;;;5018816;28;20079;-59
2021/10/08 13:30:39;;;;;;;8.70;5.35;;;;;;;;;;5018431;28;20045;-59
2021/10/08 13:33:04;;;;;;;12.45;5.63;;;;;;;;;;5017212;28;20120;-59
2021/10/08 13:35:30;;;;;;;6.40;5.80;;;;;;;;;;5019058;28;20525;-59
2021/10/08 13:37:56;;;;;;;6.25;5.60;;;;;;;;;;5020612;28;20029;-59
2021/10/08 13:40:22;;;;;;;7.05;5.70;;;;;;;;;;5020569;28;20025;-59
2021/10/08 13:42:48;;;;;;;6.90;5.53;;;;;;;;;;5018407;28;20025;-60
2021/10/08 13:45:14;;;;;;;5.97;5.38;;;;;;;;;;5017849;28;20048;-59
2021/10/08 13:47:40;;;;;;;6.72;5.50;;;;;;;;;;5017186;28;20029;-59
2021/10/08 13:50:06;;;;;;;6.35;5.53;;;;;;;;;;5020576;28;20083;-60
2021/10/08 13:52:31;;;;;;;6.18;5.20;;;;;;;;;;5017791;28;20017;-59
2021/10/08 13:54:57;;;;;;;6.25;5.65;;;;;;;;;;5018988;28;20032;-60
2021/10/08 13:57:22;;;;;;;7.63;6.13;;;;;;;;;;5018300;28;20865;-59
2021/10/08 13:59:48;;;;;;;7.68;6.22;;;;;;;;;;5020693;28;20077;-59
2021/10/08 14:02:19;;;;;;;8.82;6.07;;;;;;;;;;5016256;28;20041;-60
2021/10/08 14:05:00;;;;;;;8.98;6.30;;;;;;;;;;5017136;28;20026;-60
2021/10/08 14:07:48;;;;;;;8.52;5.90;;;;;;;;;;5018610;28;20025;-60
2021/10/08 14:10:17;;;;;;;12.43;5.72;;;;;;;;;;5018810;28;20434;-60
2021/10/08 14:12:48;;;;;;;6.05;5.45;;;;;;;;;;5017948;28;20735;-59
2021/10/08 14:15:16;;;;;;;8.50;5.65;;;;;;;;;;5019326;28;20037;-59
2021/10/08 14:17:42;;;;;;;10.55;6.00;;;;;;;;;;5017539;28;20045;-60
2021/10/08 14:23:30;;;;;;;8.02;6.45;;;;;;;;;;5019689;28;20760;-60
2021/10/08 14:25:56;;;;;;;8.23;5.97;;;;;;;;;;5019250;28;20026;-59
2021/10/08 14:28:21;;;;;;;6.03;5.45;;;;;;;;;;5017382;28;20074;-60
2021/10/08 14:30:47;;;;;;;6.90;5.85;;;;;;;;;;5015206;28;20054;-59
2021/10/08 14:33:12;;;;;;;7.97;5.90;;;;;;;;;;5017868;28;20025;-59
2021/10/08 14:35:39;;;;;;;8.43;5.97;;;;;;;;;;5017683;28;20497;-59
2021/10/08 14:38:05;;;;;;;9.02;5.82;;;;;;;;;;5022441;28;20025;-59
2021/10/08 14:40:31;;;;;;;7.53;5.97;;;;;;;;;;5017110;28;20017;-61
2021/10/08 14:42:57;;;;;;;7.90;6.05;;;;;;;;;;5017342;28;20032;-59
2021/10/08 14:45:23;;;;;;;6.95;5.47;;;;;;;;;;5017676;28;20356;-59
2021/10/08 14:47:49;;;;;;;7.57;5.90;;;;;;;;;;5017211;28;20022;-60